sensor_id;sensor_type;location;lat;lon;timestamp;P1;durP1;ratioP1;P2;durP2;ratioP2
44508;SDS011;30214;52.246;14.408;2023-02-01T00:01:40;18.98;;;2.70;;
44508;SDS011;30214;52.246;14.408;2023-02-01T00:04:09;12.68;;;2.70;;
44508;SDS011;30214;52.246;14.408;2023-02-01T00:06:37;18.30;;;3.13;;
44508;SDS011;30214;52.246;14.408;2023-02-01T00:09:10;15.13;;;2.60;;
44508;SDS011;30214;52.246;14.408;2023-02-01T00:11:44;15.50;;;2.65;;
44508;SDS011;30214;52.246;14.408;2023-02-01T00:14:13;14.23;;;2.47;;
44508;SDS011;30214;52.246;14.408;2023-02-01T00:16:42;19.05;;;2.80;;
44508;SDS011;30214;52.246;14.408;2023-02-01T00:19:14;17.15;;;2.97;;
44508;SDS011;30214;52.246;14.408;2023-02-01T00:21:43;14.88;;;3.10;;
44508;SDS011;30214;52.246;14.408;2023-02-01T00:24:10;19.67;;;2.92;;
44508;SDS011;30214;52.246;14.408;2023-02-01T00:26:39;21.80;;;3.13;;
44508;SDS011;30214;52.246;14.408;2023-02-01T00:29:10;19.27;;;3.53;;
44508;SDS011;30214;52.246;14.408;2023-02-01T00:31:41;15.43;;;2.88;;
44508;SDS011;30214;52.246;14.408;2023-02-01T00:34:09;14.07;;;2.80;;
44508;SDS011;30214;52.246;14.408;2023-02-01T00:36:38;18.05;;;3.20;;
44508;SDS011;30214;52.246;14.408;2023-02-01T00:39:10;16.05;;;3.00;;
44508;SDS011;30214;52.246;14.408;2023-02-01T00:41:38;22.27;;;4.18;;
44508;SDS011;30214;52.246;14.408;2023-02-01T00:44:09;23.65;;;3.65;;
44508;SDS011;30214;52.246;14.408;2023-02-01T00:46:37;20.95;;;3.88;;
44508;SDS011;30214;52.246;14.408;2023-02-01T00:49:04;23.05;;;3.28;;
44508;SDS011;30214;52.246;14.408;2023-02-01T00:51:34;26.42;;;4.22;;
44508;SDS011;30214;52.246;14.408;2023-02-01T00:54:01;23.90;;;4.90;;
44508;SDS011;30214;52.246;14.408;2023-02-01T00:56:29;22.23;;;3.53;;
44508;SDS011;30214;52.246;14.408;2023-02-01T00:58:56;19.40;;;3.03;;
44508;SDS011;30214;52.246;14.408;2023-02-01T01:01:26;21.63;;;5.35;;
44508;SDS011;30214;52.246;14.408;2023-02-01T01:03:54;16.27;;;3.13;;
44508;SDS011;30214;52.246;14.408;2023-02-01T01:06:26;22.30;;;3.47;;
44508;SDS011;30214;52.246;14.408;2023-02-01T01:08:56;20.30;;;4.03;;
44508;SDS011;30214;52.246;14.408;2023-02-01T01:11:28;24.10;;;4.18;;
44508;SDS011;30214;52.246;14.408;2023-02-01T01:13:57;23.63;;;3.22;;
44508;SDS011;30214;52.246;14.408;2023-02-01T01:16:28;22.35;;;3.38;;
44508;SDS011;30214;52.246;14.408;2023-02-01T01:18:56;24.58;;;4.35;;
44508;SDS011;30214;52.246;14.408;2023-02-01T01:21:24;22.00;;;3.60;;
44508;SDS011;30214;52.246;14.408;2023-02-01T01:23:52;19.88;;;3.20;;
44508;SDS011;30214;52.246;14.408;2023-02-01T01:26:20;18.85;;;3.80;;
44508;SDS011;30214;52.246;14.408;2023-02-01T01:28:49;20.38;;;3.40;;
44508;SDS011;30214;52.246;14.408;2023-02-01T01:31:17;22.55;;;3.20;;
44508;SDS011;30214;52.246;14.408;2023-02-01T01:33:48;22.13;;;4.50;;
44508;SDS011;30214;52.246;14.408;2023-02-01T01:36:17;20.88;;;3.72;;
44508;SDS011;30214;52.246;14.408;2023-02-01T01:38:45;20.85;;;3.50;;
44508;SDS011;30214;52.246;14.408;2023-02-01T01:41:13;19.67;;;3.55;;
44508;SDS011;30214;52.246;14.408;2023-02-01T01:43:55;18.40;;;3.17;;
44508;SDS011;30214;52.246;14.408;2023-02-01T01:46:26;17.52;;;3.33;;
44508;SDS011;30214;52.246;14.408;2023-02-01T01:48:58;16.55;;;3.00;;
44508;SDS011;30214;52.246;14.408;2023-02-01T01:51:31;19.65;;;3.30;;
44508;SDS011;30214;52.246;14.408;2023-02-01T01:54:05;20.98;;;3.75;;
44508;SDS011;30214;52.246;14.408;2023-02-01T01:56:39;23.27;;;3.67;;
44508;SDS011;30214;52.246;14.408;2023-02-01T01:59:07;18.83;;;3.55;;
44508;SDS011;30214;52.246;14.408;2023-02-01T02:01:36;20.52;;;3.53;;
44508;SDS011;30214;52.246;14.408;2023-02-01T02:04:04;17.38;;;3.15;;
44508;SDS011;30214;52.246;14.408;2023-02-01T02:06:40;19.55;;;2.40;;
44508;SDS011;30214;52.246;14.408;2023-02-01T02:09:13;19.35;;;3.00;;
44508;SDS011;30214;52.246;14.408;2023-02-01T02:11:41;14.85;;;3.10;;
44508;SDS011;30214;52.246;14.408;2023-02-01T02:14:09;17.65;;;3.15;;
44508;SDS011;30214;52.246;14.408;2023-02-01T02:16:57;19.77;;;3.33;;
44508;SDS011;30214;52.246;14.408;2023-02-01T02:19:48;15.75;;;2.92;;
44508;SDS011;30214;52.246;14.408;2023-02-01T02:23:19;18.42;;;3.45;;
44508;SDS011;30214;52.246;14.408;2023-02-01T02:26:35;17.45;;;3.33;;
44508;SDS011;30214;52.246;14.408;2023-02-01T02:36:32;19.15;;;2.88;;
44508;SDS011;30214;52.246;14.408;2023-02-01T02:39:15;19.75;;;3.05;;
44508;SDS011;30214;52.246;14.408;2023-02-01T02:41:49;21.75;;;3.58;;
44508;SDS011;30214;52.246;14.408;2023-02-01T02:44:43;18.00;;;2.90;;
44508;SDS011;30214;52.246;14.408;2023-02-01T02:47:33;20.85;;;3.38;;
44508;SDS011;30214;52.246;14.408;2023-02-01T02:50:12;15.50;;;2.70;;
44508;SDS011;30214;52.246;14.408;2023-02-01T02:53:07;20.38;;;3.00;;
44508;SDS011;30214;52.246;14.408;2023-02-01T02:55:57;18.00;;;2.92;;
44508;SDS011;30214;52.246;14.408;2023-02-01T02:58:43;24.20;;;3.50;;
44508;SDS011;30214;52.246;14.408;2023-02-01T03:01:30;19.50;;;3.85;;
44508;SDS011;30214;52.246;14.408;2023-02-01T03:04:16;17.50;;;3.67;;
44508;SDS011;30214;52.246;14.408;2023-02-01T03:06:45;18.13;;;3.40;;
44508;SDS011;30214;52.246;14.408;2023-02-01T03:09:16;18.15;;;3.22;;
44508;SDS011;30214;52.246;14.408;2023-02-01T03:11:49;22.75;;;3.80;;
44508;SDS011;30214;52.246;14.408;2023-02-01T03:14:38;17.85;;;2.95;;
44508;SDS011;30214;52.246;14.408;2023-02-01T03:17:13;15.52;;;2.72;;
44508;SDS011;30214;52.246;14.408;2023-02-01T03:19:45;16.67;;;3.33;;
44508;SDS011;30214;52.246;14.408;2023-02-01T03:22:17;17.75;;;3.30;;
44508;SDS011;30214;52.246;14.408;2023-02-01T03:24:50;17.52;;;3.38;;
44508;SDS011;30214;52.246;14.408;2023-02-01T03:27:21;16.52;;;3.15;;
44508;SDS011;30214;52.246;14.408;2023-02-01T03:29:54;15.90;;;2.70;;
44508;SDS011;30214;52.246;14.408;2023-02-01T03:32:31;23.35;;;2.95;;
44508;SDS011;30214;52.246;14.408;2023-02-01T03:35:19;27.92;;;3.80;;
44508;SDS011;30214;52.246;14.408;2023-02-01T03:37:51;20.10;;;4.28;;
44508;SDS011;30214;52.246;14.408;2023-02-01T03:40:25;19.35;;;3.70;;
44508;SDS011;30214;52.246;14.408;2023-02-01T03:43:00;16.80;;;3.13;;
44508;SDS011;30214;52.246;14.408;2023-02-01T03:45:33;19.70;;;3.67;;
44508;SDS011;30214;52.246;14.408;2023-02-01T03:48:05;19.70;;;3.75;;
44508;SDS011;30214;52.246;14.408;2023-02-01T03:50:34;17.85;;;3.35;;
44508;SDS011;30214;52.246;14.408;2023-02-01T03:53:06;20.42;;;4.00;;
44508;SDS011;30214;52.246;14.408;2023-02-01T03:55:38;21.60;;;3.75;;
44508;SDS011;30214;52.246;14.408;2023-02-01T03:58:06;23.30;;;3.90;;
44508;SDS011;30214;52.246;14.408;2023-02-01T04:00:39;19.67;;;3.50;;
44508;SDS011;30214;52.246;14.408;2023-02-01T04:03:10;15.98;;;2.63;;
44508;SDS011;30214;52.246;14.408;2023-02-01T04:05:38;14.65;;;2.72;;
44508;SDS011;30214;52.246;14.408;2023-02-01T04:08:07;18.38;;;3.47;;
44508;SDS011;30214;52.246;14.408;2023-02-01T04:10:34;22.63;;;2.90;;
44508;SDS011;30214;52.246;14.408;2023-02-01T04:13:02;21.35;;;3.75;;
44508;SDS011;30214;52.246;14.408;2023-02-01T04:15:30;21.00;;;2.85;;
44508;SDS011;30214;52.246;14.408;2023-02-01T04:17:57;17.98;;;3.15;;
44508;SDS011;30214;52.246;14.408;2023-02-01T04:20:24;18.58;;;3.55;;
44508;SDS011;30214;52.246;14.408;2023-02-01T04:22:51;18.05;;;3.50;;
44508;SDS011;30214;52.246;14.408;2023-02-01T04:25:18;18.83;;;3.38;;
44508;SDS011;30214;52.246;14.408;2023-02-01T04:27:46;20.40;;;3.53;;
44508;SDS011;30214;52.246;14.408;2023-02-01T04:30:15;16.23;;;3.03;;
44508;SDS011;30214;52.246;14.408;2023-02-01T04:32:43;22.45;;;3.83;;
44508;SDS011;30214;52.246;14.408;2023-02-01T04:35:10;23.88;;;3.42;;
44508;SDS011;30214;52.246;14.408;2023-02-01T04:37:37;21.33;;;3.25;;
44508;SDS011;30214;52.246;14.408;2023-02-01T04:40:05;24.25;;;3.28;;
44508;SDS011;30214;52.246;14.408;2023-02-01T04:42:33;23.67;;;3.97;;
44508;SDS011;30214;52.246;14.408;2023-02-01T04:45:00;20.95;;;3.58;;
44508;SDS011;30214;52.246;14.408;2023-02-01T04:47:29;18.48;;;4.60;;
44508;SDS011;30214;52.246;14.408;2023-02-01T04:49:56;19.92;;;2.92;;
44508;SDS011;30214;52.246;14.408;2023-02-01T04:52:23;17.08;;;2.65;;
44508;SDS011;30214;52.246;14.408;2023-02-01T04:54:50;17.45;;;3.25;;
44508;SDS011;30214;52.246;14.408;2023-02-01T04:57:19;20.35;;;2.70;;
44508;SDS011;30214;52.246;14.408;2023-02-01T04:59:47;23.15;;;3.83;;
44508;SDS011;30214;52.246;14.408;2023-02-01T05:02:14;18.25;;;3.17;;
44508;SDS011;30214;52.246;14.408;2023-02-01T05:04:42;17.05;;;3.78;;
44508;SDS011;30214;52.246;14.408;2023-02-01T05:07:09;27.10;;;3.90;;
44508;SDS011;30214;52.246;14.408;2023-02-01T05:09:36;20.23;;;3.10;;
44508;SDS011;30214;52.246;14.408;2023-02-01T05:12:04;18.02;;;2.65;;
44508;SDS011;30214;52.246;14.408;2023-02-01T05:14:49;25.10;;;3.28;;
44508;SDS011;30214;52.246;14.408;2023-02-01T05:17:16;18.83;;;2.90;;
44508;SDS011;30214;52.246;14.408;2023-02-01T05:19:45;21.27;;;3.13;;
44508;SDS011;30214;52.246;14.408;2023-02-01T05:22:12;17.73;;;3.83;;
44508;SDS011;30214;52.246;14.408;2023-02-01T05:24:39;24.30;;;3.63;;
44508;SDS011;30214;52.246;14.408;2023-02-01T05:27:06;16.85;;;3.78;;
44508;SDS011;30214;52.246;14.408;2023-02-01T05:29:36;20.27;;;3.53;;
44508;SDS011;30214;52.246;14.408;2023-02-01T05:32:03;18.17;;;3.33;;
44508;SDS011;30214;52.246;14.408;2023-02-01T05:34:30;23.98;;;4.07;;
44508;SDS011;30214;52.246;14.408;2023-02-01T05:36:59;19.55;;;3.65;;
44508;SDS011;30214;52.246;14.408;2023-02-01T05:39:26;19.90;;;3.53;;
44508;SDS011;30214;52.246;14.408;2023-02-01T05:41:53;22.55;;;3.53;;
44508;SDS011;30214;52.246;14.408;2023-02-01T05:44:20;17.58;;;3.80;;
44508;SDS011;30214;52.246;14.408;2023-02-01T05:46:48;20.00;;;3.50;;
44508;SDS011;30214;52.246;14.408;2023-02-01T05:49:17;25.10;;;3.85;;
44508;SDS011;30214;52.246;14.408;2023-02-01T05:51:44;20.17;;;5.32;;
44508;SDS011;30214;52.246;14.408;2023-02-01T05:54:13;18.60;;;3.72;;
44508;SDS011;30214;52.246;14.408;2023-02-01T05:56:40;19.42;;;3.20;;
44508;SDS011;30214;52.246;14.408;2023-02-01T05:59:08;15.05;;;3.00;;
44508;SDS011;30214;52.246;14.408;2023-02-01T06:01:36;15.15;;;3.15;;
44508;SDS011;30214;52.246;14.408;2023-02-01T06:04:03;17.25;;;3.17;;
44508;SDS011;30214;52.246;14.408;2023-02-01T06:06:30;24.52;;;4.65;;
44508;SDS011;30214;52.246;14.408;2023-02-01T06:08:57;19.08;;;3.33;;
44508;SDS011;30214;52.246;14.408;2023-02-01T06:11:26;21.30;;;4.32;;
44508;SDS011;30214;52.246;14.408;2023-02-01T06:13:54;18.42;;;3.20;;
44508;SDS011;30214;52.246;14.408;2023-02-01T06:16:21;19.13;;;3.67;;
44508;SDS011;30214;52.246;14.408;2023-02-01T06:18:49;21.60;;;3.85;;
44508;SDS011;30214;52.246;14.408;2023-02-01T06:21:19;23.42;;;3.42;;
44508;SDS011;30214;52.246;14.408;2023-02-01T06:23:49;26.58;;;4.15;;
44508;SDS011;30214;52.246;14.408;2023-02-01T06:26:17;23.95;;;3.75;;
44508;SDS011;30214;52.246;14.408;2023-02-01T06:28:45;14.05;;;3.00;;
44508;SDS011;30214;52.246;14.408;2023-02-01T06:31:12;24.73;;;4.35;;
44508;SDS011;30214;52.246;14.408;2023-02-01T06:33:41;19.08;;;3.50;;
44508;SDS011;30214;52.246;14.408;2023-02-01T06:36:11;19.90;;;3.17;;
44508;SDS011;30214;52.246;14.408;2023-02-01T06:38:41;24.67;;;4.45;;
44508;SDS011;30214;52.246;14.408;2023-02-01T06:41:08;16.48;;;3.78;;
44508;SDS011;30214;52.246;14.408;2023-02-01T06:43:36;20.33;;;3.75;;
44508;SDS011;30214;52.246;14.408;2023-02-01T06:46:06;21.55;;;3.45;;
44508;SDS011;30214;52.246;14.408;2023-02-01T06:48:36;24.00;;;4.45;;
44508;SDS011;30214;52.246;14.408;2023-02-01T06:51:03;27.92;;;5.00;;
44508;SDS011;30214;52.246;14.408;2023-02-01T06:53:31;23.65;;;4.75;;
44508;SDS011;30214;52.246;14.408;2023-02-01T06:55:59;24.02;;;4.45;;
44508;SDS011;30214;52.246;14.408;2023-02-01T06:58:28;23.83;;;4.18;;
44508;SDS011;30214;52.246;14.408;2023-02-01T07:00:56;17.95;;;3.38;;
44508;SDS011;30214;52.246;14.408;2023-02-01T07:03:24;27.92;;;4.80;;
44508;SDS011;30214;52.246;14.408;2023-02-01T07:05:54;20.38;;;3.28;;
44508;SDS011;30214;52.246;14.408;2023-02-01T07:08:23;23.83;;;3.63;;
44508;SDS011;30214;52.246;14.408;2023-02-01T07:10:51;23.33;;;5.13;;
44508;SDS011;30214;52.246;14.408;2023-02-01T07:13:18;21.00;;;3.60;;
44508;SDS011;30214;52.246;14.408;2023-02-01T07:15:45;29.10;;;4.78;;
44508;SDS011;30214;52.246;14.408;2023-02-01T07:18:13;21.20;;;3.67;;
44508;SDS011;30214;52.246;14.408;2023-02-01T07:20:41;25.77;;;3.80;;
44508;SDS011;30214;52.246;14.408;2023-02-01T07:23:09;25.95;;;3.78;;
44508;SDS011;30214;52.246;14.408;2023-02-01T07:25:36;23.10;;;4.25;;
44508;SDS011;30214;52.246;14.408;2023-02-01T07:28:03;22.13;;;3.65;;
44508;SDS011;30214;52.246;14.408;2023-02-01T07:30:30;23.50;;;3.58;;
44508;SDS011;30214;52.246;14.408;2023-02-01T07:32:58;20.98;;;3.50;;
44508;SDS011;30214;52.246;14.408;2023-02-01T07:35:26;19.27;;;3.83;;
44508;SDS011;30214;52.246;14.408;2023-02-01T07:37:56;24.05;;;3.58;;
44508;SDS011;30214;52.246;14.408;2023-02-01T07:40:24;23.10;;;4.10;;
44508;SDS011;30214;52.246;14.408;2023-02-01T07:42:53;25.52;;;5.38;;
44508;SDS011;30214;52.246;14.408;2023-02-01T07:45:21;21.77;;;3.45;;
44508;SDS011;30214;52.246;14.408;2023-02-01T07:47:48;29.30;;;4.38;;
44508;SDS011;30214;52.246;14.408;2023-02-01T07:50:17;21.23;;;4.22;;
44508;SDS011;30214;52.246;14.408;2023-02-01T07:52:44;22.08;;;4.15;;
44508;SDS011;30214;52.246;14.408;2023-02-01T07:55:13;22.17;;;4.28;;
44508;SDS011;30214;52.246;14.408;2023-02-01T07:57:40;26.98;;;4.25;;
44508;SDS011;30214;52.246;14.408;2023-02-01T08:00:08;24.70;;;3.90;;
44508;SDS011;30214;52.246;14.408;2023-02-01T08:02:57;20.42;;;3.97;;
44508;SDS011;30214;52.246;14.408;2023-02-01T08:05:24;23.33;;;4.15;;
44508;SDS011;30214;52.246;14.408;2023-02-01T08:07:51;27.00;;;4.38;;
44508;SDS011;30214;52.246;14.408;2023-02-01T08:10:19;21.85;;;4.10;;
44508;SDS011;30214;52.246;14.408;2023-02-01T08:12:46;18.38;;;3.63;;
44508;SDS011;30214;52.246;14.408;2023-02-01T08:15:14;17.10;;;3.78;;
44508;SDS011;30214;52.246;14.408;2023-02-01T08:17:45;21.20;;;3.58;;
44508;SDS011;30214;52.246;14.408;2023-02-01T08:20:14;23.88;;;3.92;;
44508;SDS011;30214;52.246;14.408;2023-02-01T08:22:41;19.67;;;4.55;;
44508;SDS011;30214;52.246;14.408;2023-02-01T08:25:08;17.45;;;4.13;;
44508;SDS011;30214;52.246;14.408;2023-02-01T08:27:37;16.13;;;4.20;;
44508;SDS011;30214;52.246;14.408;2023-02-01T08:30:05;24.77;;;5.03;;
44508;SDS011;30214;52.246;14.408;2023-02-01T08:32:34;20.42;;;4.40;;
44508;SDS011;30214;52.246;14.408;2023-02-01T08:35:01;29.58;;;4.45;;
44508;SDS011;30214;52.246;14.408;2023-02-01T08:37:28;17.33;;;3.03;;
44508;SDS011;30214;52.246;14.408;2023-02-01T08:39:56;21.17;;;4.15;;
44508;SDS011;30214;52.246;14.408;2023-02-01T08:42:23;20.83;;;4.10;;
44508;SDS011;30214;52.246;14.408;2023-02-01T08:45:09;16.20;;;3.42;;
44508;SDS011;30214;52.246;14.408;2023-02-01T08:47:37;15.60;;;3.30;;
44508;SDS011;30214;52.246;14.408;2023-02-01T08:50:04;17.65;;;4.18;;
44508;SDS011;30214;52.246;14.408;2023-02-01T08:52:32;25.73;;;9.18;;
44508;SDS011;30214;52.246;14.408;2023-02-01T08:54:59;19.73;;;5.38;;
44508;SDS011;30214;52.246;14.408;2023-02-01T08:57:26;17.20;;;3.38;;
44508;SDS011;30214;52.246;14.408;2023-02-01T08:59:53;12.85;;;3.15;;
44508;SDS011;30214;52.246;14.408;2023-02-01T09:02:22;15.05;;;3.78;;
44508;SDS011;30214;52.246;14.408;2023-02-01T09:04:49;18.58;;;6.88;;
44508;SDS011;30214;52.246;14.408;2023-02-01T09:07:17;21.77;;;10.50;;
44508;SDS011;30214;52.246;14.408;2023-02-01T09:09:44;12.00;;;3.38;;
44508;SDS011;30214;52.246;14.408;2023-02-01T09:12:12;15.18;;;3.50;;
44508;SDS011;30214;52.246;14.408;2023-02-01T09:14:39;18.60;;;6.90;;
44508;SDS011;30214;52.246;14.408;2023-02-01T09:17:06;13.82;;;4.05;;
44508;SDS011;30214;52.246;14.408;2023-02-01T09:19:36;17.65;;;4.57;;
44508;SDS011;30214;52.246;14.408;2023-02-01T09:22:03;16.23;;;4.55;;
44508;SDS011;30214;52.246;14.408;2023-02-01T09:24:30;14.15;;;3.83;;
44508;SDS011;30214;52.246;14.408;2023-02-01T09:26:57;14.32;;;4.18;;
44508;SDS011;30214;52.246;14.408;2023-02-01T09:29:25;14.98;;;3.15;;
44508;SDS011;30214;52.246;14.408;2023-02-01T09:31:52;13.18;;;3.40;;
44508;SDS011;30214;52.246;14.408;2023-02-01T09:34:19;14.00;;;3.38;;
44508;SDS011;30214;52.246;14.408;2023-02-01T09:36:48;15.65;;;3.60;;
44508;SDS011;30214;52.246;14.408;2023-02-01T09:39:15;16.08;;;4.10;;
44508;SDS011;30214;52.246;14.408;2023-02-01T09:41:46;14.05;;;3.17;;
44508;SDS011;30214;52.246;14.408;2023-02-01T09:47:19;12.85;;;3.28;;
44508;SDS011;30214;52.246;14.408;2023-02-01T09:49:51;12.85;;;3.03;;
44508;SDS011;30214;52.246;14.408;2023-02-01T09:52:25;9.68;;;2.55;;
44508;SDS011;30214;52.246;14.408;2023-02-01T09:54:58;15.25;;;2.55;;
44508;SDS011;30214;52.246;14.408;2023-02-01T09:57:40;8.05;;;2.70;;
44508;SDS011;30214;52.246;14.408;2023-02-01T10:00:17;7.57;;;2.63;;
44508;SDS011;30214;52.246;14.408;2023-02-01T10:02:49;4.05;;;1.70;;
44508;SDS011;30214;52.246;14.408;2023-02-01T10:05:18;7.60;;;2.45;;
44508;SDS011;30214;52.246;14.408;2023-02-01T10:08:07;6.63;;;1.85;;
44508;SDS011;30214;52.246;14.408;2023-02-01T10:10:43;6.03;;;1.73;;
44508;SDS011;30214;52.246;14.408;2023-02-01T10:13:17;4.78;;;1.67;;
44508;SDS011;30214;52.246;14.408;2023-02-01T10:16:11;6.82;;;1.42;;
44508;SDS011;30214;52.246;14.408;2023-02-01T10:18:51;4.47;;;2.03;;
44508;SDS011;30214;52.246;14.408;2023-02-01T10:21:50;8.38;;;2.67;;
44508;SDS011;30214;52.246;14.408;2023-02-01T10:27:16;5.85;;;1.83;;
44508;SDS011;30214;52.246;14.408;2023-02-01T10:29:54;6.05;;;2.03;;
44508;SDS011;30214;52.246;14.408;2023-02-01T10:32:28;4.72;;;1.58;;
44508;SDS011;30214;52.246;14.408;2023-02-01T10:35:02;6.85;;;2.22;;
44508;SDS011;30214;52.246;14.408;2023-02-01T10:37:38;6.75;;;2.40;;
44508;SDS011;30214;52.246;14.408;2023-02-01T10:40:12;4.78;;;2.10;;
44508;SDS011;30214;52.246;14.408;2023-02-01T10:42:45;6.85;;;1.58;;
44508;SDS011;30214;52.246;14.408;2023-02-01T10:45:13;6.20;;;1.50;;
44508;SDS011;30214;52.246;14.408;2023-02-01T10:47:44;4.38;;;1.30;;
44508;SDS011;30214;52.246;14.408;2023-02-01T10:50:15;9.30;;;1.67;;
44508;SDS011;30214;52.246;14.408;2023-02-01T10:52:52;6.68;;;1.80;;
44508;SDS011;30214;52.246;14.408;2023-02-01T10:55:27;9.48;;;1.63;;
44508;SDS011;30214;52.246;14.408;2023-02-01T10:58:06;5.20;;;1.50;;
44508;SDS011;30214;52.246;14.408;2023-02-01T11:00:42;6.20;;;1.80;;
44508;SDS011;30214;52.246;14.408;2023-02-01T11:03:20;5.50;;;1.55;;
44508;SDS011;30214;52.246;14.408;2023-02-01T11:05:59;6.72;;;1.50;;
44508;SDS011;30214;52.246;14.408;2023-02-01T11:08:29;4.63;;;1.40;;
44508;SDS011;30214;52.246;14.408;2023-02-01T11:10:58;5.75;;;1.45;;
44508;SDS011;30214;52.246;14.408;2023-02-01T11:13:29;7.57;;;1.50;;
44508;SDS011;30214;52.246;14.408;2023-02-01T11:16:01;7.38;;;1.70;;
44508;SDS011;30214;52.246;14.408;2023-02-01T11:18:30;5.53;;;1.60;;
44508;SDS011;30214;52.246;14.408;2023-02-01T11:21:01;3.40;;;1.55;;
44508;SDS011;30214;52.246;14.408;2023-02-01T11:23:30;5.45;;;1.52;;
44508;SDS011;30214;52.246;14.408;2023-02-01T11:26:10;7.47;;;2.38;;
44508;SDS011;30214;52.246;14.408;2023-02-01T11:28:42;6.18;;;1.23;;
44508;SDS011;30214;52.246;14.408;2023-02-01T11:31:18;5.78;;;1.50;;
44508;SDS011;30214;52.246;14.408;2023-02-01T11:33:47;6.78;;;1.50;;
44508;SDS011;30214;52.246;14.408;2023-02-01T11:36:20;5.93;;;1.60;;
44508;SDS011;30214;52.246;14.408;2023-02-01T11:38:52;8.40;;;1.48;;
44508;SDS011;30214;52.246;14.408;2023-02-01T11:41:36;8.77;;;1.98;;
44508;SDS011;30214;52.246;14.408;2023-02-01T11:44:18;6.88;;;1.77;;
44508;SDS011;30214;52.246;14.408;2023-02-01T11:46:48;9.35;;;1.77;;
44508;SDS011;30214;52.246;14.408;2023-02-01T11:49:19;7.20;;;1.90;;
44508;SDS011;30214;52.246;14.408;2023-02-01T11:51:52;7.05;;;1.50;;
44508;SDS011;30214;52.246;14.408;2023-02-01T11:57:45;3.95;;;1.40;;
44508;SDS011;30214;52.246;14.408;2023-02-01T12:00:30;4.85;;;1.30;;
44508;SDS011;30214;52.246;14.408;2023-02-01T12:03:30;3.88;;;1.27;;
44508;SDS011;30214;52.246;14.408;2023-02-01T12:06:38;5.63;;;1.25;;
44508;SDS011;30214;52.246;14.408;2023-02-01T12:09:19;7.22;;;1.83;;
44508;SDS011;30214;52.246;14.408;2023-02-01T12:12:08;5.03;;;1.60;;
44508;SDS011;30214;52.246;14.408;2023-02-01T12:14:50;5.22;;;1.48;;
44508;SDS011;30214;52.246;14.408;2023-02-01T12:17:42;13.07;;;1.85;;
44508;SDS011;30214;52.246;14.408;2023-02-01T12:20:36;11.95;;;1.77;;
44508;SDS011;30214;52.246;14.408;2023-02-01T12:23:56;8.00;;;2.15;;
44508;SDS011;30214;52.246;14.408;2023-02-01T12:26:40;6.32;;;2.20;;
44508;SDS011;30214;52.246;14.408;2023-02-01T12:29:19;22.92;;;9.23;;
44508;SDS011;30214;52.246;14.408;2023-02-01T12:32:22;7.90;;;2.22;;
44508;SDS011;30214;52.246;14.408;2023-02-01T12:35:15;11.25;;;2.20;;
44508;SDS011;30214;52.246;14.408;2023-02-01T12:38:11;9.60;;;1.98;;
44508;SDS011;30214;52.246;14.408;2023-02-01T12:41:10;11.38;;;2.03;;
44508;SDS011;30214;52.246;14.408;2023-02-01T12:43:59;6.82;;;1.60;;
44508;SDS011;30214;52.246;14.408;2023-02-01T12:46:33;9.52;;;2.08;;
44508;SDS011;30214;52.246;14.408;2023-02-01T12:49:10;11.40;;;1.90;;
44508;SDS011;30214;52.246;14.408;2023-02-01T12:51:41;11.80;;;2.05;;
44508;SDS011;30214;52.246;14.408;2023-02-01T12:54:13;8.18;;;1.70;;
44508;SDS011;30214;52.246;14.408;2023-02-01T12:56:47;11.98;;;2.42;;
44508;SDS011;30214;52.246;14.408;2023-02-01T13:01:53;12.05;;;2.42;;
44508;SDS011;30214;52.246;14.408;2023-02-01T13:04:27;9.75;;;1.88;;
44508;SDS011;30214;52.246;14.408;2023-02-01T13:07:04;13.00;;;1.80;;
44508;SDS011;30214;52.246;14.408;2023-02-01T13:09:39;13.45;;;2.33;;
44508;SDS011;30214;52.246;14.408;2023-02-01T13:12:12;10.82;;;2.15;;
44508;SDS011;30214;52.246;14.408;2023-02-01T13:14:44;11.32;;;2.28;;
44508;SDS011;30214;52.246;14.408;2023-02-01T13:17:19;9.18;;;1.85;;
44508;SDS011;30214;52.246;14.408;2023-02-01T13:19:53;12.48;;;2.25;;
44508;SDS011;30214;52.246;14.408;2023-02-01T13:22:25;7.57;;;1.88;;
44508;SDS011;30214;52.246;14.408;2023-02-01T13:24:57;8.18;;;1.77;;
44508;SDS011;30214;52.246;14.408;2023-02-01T13:27:27;6.85;;;1.70;;
44508;SDS011;30214;52.246;14.408;2023-02-01T13:29:57;10.30;;;2.17;;
44508;SDS011;30214;52.246;14.408;2023-02-01T13:32:37;11.27;;;1.73;;
44508;SDS011;30214;52.246;14.408;2023-02-01T13:35:57;11.13;;;2.25;;
44508;SDS011;30214;52.246;14.408;2023-02-01T13:42:22;7.70;;;1.75;;
44508;SDS011;30214;52.246;14.408;2023-02-01T13:44:52;9.65;;;1.90;;
44508;SDS011;30214;52.246;14.408;2023-02-01T13:47:26;7.03;;;1.50;;
44508;SDS011;30214;52.246;14.408;2023-02-01T13:49:57;9.77;;;1.85;;
44508;SDS011;30214;52.246;14.408;2023-02-01T13:52:36;10.40;;;2.45;;
44508;SDS011;30214;52.246;14.408;2023-02-01T13:55:23;9.32;;;2.05;;
44508;SDS011;30214;52.246;14.408;2023-02-01T13:58:03;8.80;;;1.80;;
44508;SDS011;30214;52.246;14.408;2023-02-01T14:00:46;11.60;;;2.55;;
44508;SDS011;30214;52.246;14.408;2023-02-01T14:03:17;10.77;;;2.22;;
44508;SDS011;30214;52.246;14.408;2023-02-01T14:06:03;10.32;;;1.83;;
44508;SDS011;30214;52.246;14.408;2023-02-01T14:15:17;6.22;;;1.67;;
44508;SDS011;30214;52.246;14.408;2023-02-01T14:17:54;4.05;;;0.75;;
44508;SDS011;30214;52.246;14.408;2023-02-01T14:23:18;2.03;;;0.70;;
44508;SDS011;30214;52.246;14.408;2023-02-01T14:25:59;1.02;;;0.43;;
44508;SDS011;30214;52.246;14.408;2023-02-01T14:28:35;4.25;;;2.35;;
44508;SDS011;30214;52.246;14.408;2023-02-01T14:31:14;2.75;;;1.10;;
44508;SDS011;30214;52.246;14.408;2023-02-01T14:34:28;3.47;;;1.20;;
44508;SDS011;30214;52.246;14.408;2023-02-01T14:37:09;1.13;;;0.65;;
44508;SDS011;30214;52.246;14.408;2023-02-01T14:39:53;1.40;;;0.55;;
44508;SDS011;30214;52.246;14.408;2023-02-01T14:42:29;4.32;;;0.80;;
44508;SDS011;30214;52.246;14.408;2023-02-01T14:51:15;4.55;;;1.60;;
44508;SDS011;30214;52.246;14.408;2023-02-01T14:53:43;4.05;;;1.60;;
44508;SDS011;30214;52.246;14.408;2023-02-01T14:56:13;3.33;;;1.10;;
44508;SDS011;30214;52.246;14.408;2023-02-01T14:58:48;8.43;;;1.35;;
44508;SDS011;30214;52.246;14.408;2023-02-01T15:01:23;4.97;;;1.77;;
44508;SDS011;30214;52.246;14.408;2023-02-01T15:03:59;6.15;;;1.40;;
44508;SDS011;30214;52.246;14.408;2023-02-01T15:06:32;9.45;;;1.63;;
44508;SDS011;30214;52.246;14.408;2023-02-01T15:09:04;11.53;;;1.60;;
44508;SDS011;30214;52.246;14.408;2023-02-01T15:14:26;11.15;;;1.67;;
44508;SDS011;30214;52.246;14.408;2023-02-01T15:16:55;11.20;;;2.10;;
44508;SDS011;30214;52.246;14.408;2023-02-01T15:19:23;11.85;;;2.25;;
44508;SDS011;30214;52.246;14.408;2023-02-01T15:21:53;9.20;;;2.10;;
44508;SDS011;30214;52.246;14.408;2023-02-01T15:24:23;8.73;;;2.13;;
44508;SDS011;30214;52.246;14.408;2023-02-01T15:26:52;11.48;;;2.50;;
44508;SDS011;30214;52.246;14.408;2023-02-01T15:29:22;9.27;;;2.10;;
44508;SDS011;30214;52.246;14.408;2023-02-01T15:31:57;10.30;;;2.22;;
44508;SDS011;30214;52.246;14.408;2023-02-01T15:34:43;7.97;;;1.85;;
44508;SDS011;30214;52.246;14.408;2023-02-01T15:37:12;13.95;;;2.13;;
44508;SDS011;30214;52.246;14.408;2023-02-01T15:42:33;11.60;;;2.58;;
44508;SDS011;30214;52.246;14.408;2023-02-01T15:45:02;17.88;;;3.45;;